createdAt,value
2022-09-15T00:01:19.155Z,8.40
2022-09-15T00:03:47.702Z,8.70
2022-09-15T00:06:16.293Z,8.60
2022-09-15T00:08:46.095Z,8.37
2022-09-15T00:11:18.610Z,8.37
2022-09-15T00:13:47.211Z,8.60
2022-09-15T00:16:16.170Z,8.53
2022-09-15T00:18:46.014Z,8.30
2022-09-15T00:21:16.446Z,8.57
2022-09-15T00:23:47.002Z,8.33
2022-09-15T00:26:17.124Z,8.00
2022-09-15T00:28:45.322Z,7.90
2022-09-15T00:31:15.168Z,7.87
2022-09-15T00:33:43.857Z,8.13
2022-09-15T00:36:14.353Z,8.07
2022-09-15T00:38:42.777Z,8.40
2022-09-15T00:41:14.391Z,8.10
2022-09-15T00:43:47.130Z,7.77
2022-09-15T00:46:16.120Z,7.60
2022-09-15T00:48:56.812Z,8.10
2022-09-15T00:51:29.538Z,7.83
2022-09-15T00:53:58.444Z,8.60
2022-09-15T00:56:28.914Z,8.87
2022-09-15T00:59:01.438Z,8.33
2022-09-15T01:01:31.596Z,8.20
2022-09-15T01:04:00.154Z,8.90
2022-09-15T01:06:31.908Z,8.60
2022-09-15T01:09:05.689Z,8.90
2022-09-15T01:11:36.045Z,8.50
2022-09-15T01:14:04.409Z,8.20
2022-09-15T01:16:43.264Z,8.30
2022-09-15T01:19:37.408Z,8.37
2022-09-15T01:22:17.059Z,7.80
2022-09-15T01:25:02.511Z,8.23
2022-09-15T01:28:00.215Z,8.90
2022-09-15T01:30:34.816Z,8.60
2022-09-15T01:33:14.756Z,8.40
2022-09-15T01:35:55.509Z,8.47
2022-09-15T01:38:31.509Z,7.90
2022-09-15T01:41:06.219Z,7.47
2022-09-15T01:43:37.594Z,7.77
2022-09-15T01:46:08.358Z,7.70
2022-09-15T01:48:38.251Z,7.60
2022-09-15T01:51:08.057Z,7.33
2022-09-15T01:53:36.543Z,7.40
2022-09-15T01:56:09.354Z,7.27
2022-09-15T01:58:39.016Z,7.10
2022-09-15T02:01:14.830Z,7.40
2022-09-15T02:03:48.928Z,7.50
2022-09-15T02:06:23.370Z,7.70
2022-09-15T02:08:55.397Z,7.47
2022-09-15T02:11:28.099Z,6.83
2022-09-15T02:14:03.038Z,7.00
2022-09-15T02:16:36.211Z,7.20
2022-09-15T02:19:19.724Z,7.33
2022-09-15T02:22:03.031Z,6.87
2022-09-15T02:24:37.251Z,7.00
2022-09-15T02:27:10.641Z,7.50
2022-09-15T02:29:39.993Z,7.60
2022-09-15T02:32:11.132Z,7.20
2022-09-15T02:34:45.412Z,7.77
2022-09-15T02:37:15.038Z,7.40
2022-09-15T02:39:49.204Z,7.20
2022-09-15T02:42:25.049Z,7.20
2022-09-15T02:44:53.541Z,7.60
2022-09-15T02:47:23.413Z,7.40
2022-09-15T02:49:51.524Z,7.57
2022-09-15T02:52:19.648Z,7.43
2022-09-15T02:54:48.139Z,7.30
2022-09-15T02:57:16.478Z,7.57
2022-09-15T03:00:01.938Z,7.50
2022-09-15T03:02:31.584Z,7.50
2022-09-15T03:04:59.832Z,7.90
2022-09-15T03:07:28.494Z,7.83
2022-09-15T03:09:56.783Z,7.17
2022-09-15T03:12:24.882Z,7.50
2022-09-15T03:14:53.198Z,7.57
2022-09-15T03:17:21.276Z,7.90
2022-09-15T03:19:51.007Z,7.50
2022-09-15T03:22:18.999Z,7.40
2022-09-15T03:24:47.288Z,7.43
2022-09-15T03:27:15.344Z,7.90
2022-09-15T03:29:43.442Z,7.60
2022-09-15T03:32:11.848Z,7.83
2022-09-15T03:34:39.975Z,8.17
2022-09-15T03:37:09.582Z,7.70
2022-09-15T03:39:37.623Z,7.67
2022-09-15T03:42:05.880Z,7.50
2022-09-15T03:44:34.030Z,7.73
2022-09-15T03:47:02.058Z,7.60
2022-09-15T03:49:31.234Z,7.50
2022-09-15T03:51:59.347Z,8.20
2022-09-15T03:54:28.901Z,8.20
2022-09-15T03:56:56.927Z,7.80
2022-09-15T03:59:24.994Z,8.50
2022-09-15T04:01:53.138Z,7.80
2022-09-15T04:04:21.363Z,8.93
2022-09-15T04:06:49.437Z,7.73
2022-09-15T04:09:17.475Z,7.30
2022-09-15T04:11:47.682Z,7.93
2022-09-15T04:14:16.325Z,7.90
2022-09-15T04:16:44.415Z,8.43
2022-09-15T04:19:12.542Z,8.30
2022-09-15T04:21:40.709Z,8.00
2022-09-15T04:24:08.796Z,8.37
2022-09-15T04:26:38.509Z,7.60
2022-09-15T04:29:13.734Z,8.10
2022-09-15T04:31:42.094Z,8.20
2022-09-15T04:34:10.202Z,8.80
2022-09-15T04:36:38.527Z,7.87
2022-09-15T04:39:07.133Z,8.17
2022-09-15T04:41:35.341Z,8.03
2022-09-15T04:44:03.718Z,7.60
2022-09-15T04:46:33.105Z,8.27
2022-09-15T04:49:01.355Z,8.07
2022-09-15T04:51:29.477Z,8.80
2022-09-15T04:53:57.543Z,8.20
2022-09-15T04:56:27.216Z,8.20
2022-09-15T04:59:02.433Z,8.93
2022-09-15T05:01:36.105Z,8.70
2022-09-15T05:04:05.527Z,9.37
2022-09-15T05:06:34.891Z,8.87
2022-09-15T05:09:09.011Z,8.80
2022-09-15T05:11:38.551Z,8.53
2022-09-15T05:14:08.059Z,8.50
2022-09-15T05:16:37.679Z,9.80
2022-09-15T05:19:06.047Z,8.63
2022-09-15T05:21:34.587Z,8.47
2022-09-15T05:24:03.592Z,8.70
2022-09-15T05:26:31.955Z,8.87
2022-09-15T05:29:00.284Z,8.80
2022-09-15T05:31:31.638Z,9.03
2022-09-15T05:34:02.742Z,8.80
2022-09-15T05:36:31.222Z,8.77
2022-09-15T05:38:59.681Z,9.57
2022-09-15T05:41:29.110Z,9.00
2022-09-15T05:43:58.935Z,9.47
2022-09-15T05:46:29.008Z,9.47
2022-09-15T05:48:58.923Z,8.80
2022-09-15T05:51:30.199Z,8.87
2022-09-15T05:53:58.310Z,8.77
2022-09-15T05:56:26.430Z,9.43
2022-09-15T05:58:54.526Z,9.00
2022-09-15T06:01:24.562Z,9.37
2022-09-15T06:03:53.393Z,8.90
2022-09-15T06:06:22.839Z,9.67
2022-09-15T06:08:58.347Z,9.93
2022-09-15T06:11:29.053Z,9.70
2022-09-15T06:13:59.716Z,10.30
2022-09-15T06:16:27.949Z,9.20
2022-09-15T06:18:56.066Z,9.13
2022-09-15T06:21:26.255Z,9.27
2022-09-15T06:23:56.734Z,9.10
2022-09-15T06:26:25.963Z,9.60
2022-09-15T06:28:55.621Z,9.40
2022-09-15T06:31:24.693Z,9.67
2022-09-15T06:33:54.638Z,9.67
2022-09-15T06:36:24.386Z,9.77
2022-09-15T06:38:52.811Z,9.43
2022-09-15T06:41:22.650Z,10.60
2022-09-15T06:43:50.943Z,9.70
2022-09-15T06:46:21.157Z,10.20
2022-09-15T06:48:51.254Z,11.13
2022-09-15T06:51:21.139Z,9.90
2022-09-15T06:53:49.720Z,9.57
2022-09-15T06:56:19.750Z,9.80
2022-09-15T06:58:50.100Z,9.70
2022-09-15T07:01:22.740Z,9.60
2022-09-15T07:03:51.241Z,9.80
2022-09-15T07:06:19.597Z,9.90
2022-09-15T07:08:47.981Z,10.10
2022-09-15T07:11:16.560Z,10.30
2022-09-15T07:13:44.874Z,10.83
2022-09-15T07:16:15.258Z,10.30
2022-09-15T07:18:45.007Z,10.50
2022-09-15T07:21:15.622Z,10.47
2022-09-15T07:23:44.828Z,10.60
2022-09-15T07:26:15.171Z,11.13
2022-09-15T07:28:46.106Z,11.50
2022-09-15T07:31:18.225Z,12.27
2022-09-15T07:33:47.799Z,11.60
2022-09-15T07:36:17.486Z,12.37
2022-09-15T07:38:50.048Z,11.30
2022-09-15T07:41:21.594Z,11.20
2022-09-15T07:43:51.941Z,11.10
2022-09-15T07:46:24.004Z,11.13
2022-09-15T07:48:56.601Z,11.37
2022-09-15T07:51:26.307Z,11.13
2022-09-15T07:53:57.397Z,11.13
2022-09-15T07:56:27.317Z,11.30
2022-09-15T07:58:56.709Z,12.10
2022-09-15T08:01:27.861Z,11.60
2022-09-15T08:03:56.815Z,12.57
2022-09-15T08:06:28.401Z,11.60
2022-09-15T08:09:00.668Z,12.23
2022-09-15T08:11:31.167Z,12.03
2022-09-15T08:14:03.974Z,12.10
2022-09-15T08:16:34.682Z,12.53
2022-09-15T08:19:06.300Z,12.50
2022-09-15T08:21:34.581Z,11.63
2022-09-15T08:24:02.818Z,12.67
2022-09-15T08:26:31.366Z,12.47
2022-09-15T08:29:00.634Z,12.70
2022-09-15T08:31:28.952Z,13.20
2022-09-15T08:33:58.635Z,13.83
2022-09-15T08:36:28.311Z,13.50
2022-09-15T08:38:56.905Z,14.07
2022-09-15T08:41:28.988Z,13.50
2022-09-15T08:44:03.591Z,13.00
2022-09-15T08:46:37.931Z,13.10
2022-09-15T08:49:14.210Z,13.30
2022-09-15T08:51:47.581Z,13.10
2022-09-15T08:54:21.245Z,12.73
2022-09-15T08:56:49.870Z,12.50
2022-09-15T08:59:19.088Z,13.27
2022-09-15T09:02:23.388Z,13.63
2022-09-15T09:05:03.506Z,13.10
2022-09-15T09:07:47.955Z,13.30
2022-09-15T09:10:25.280Z,13.20
2022-09-15T09:13:09.238Z,12.37
2022-09-15T09:15:48.996Z,13.00
2022-09-15T09:18:39.835Z,13.00
2022-09-15T09:21:18.920Z,13.80
2022-09-15T09:23:51.649Z,13.17
2022-09-15T09:26:20.586Z,13.70
2022-09-15T09:28:54.617Z,13.80
2022-09-15T09:31:24.709Z,14.30
2022-09-15T09:33:59.015Z,13.57
2022-09-15T09:36:28.931Z,13.50
2022-09-15T09:38:58.615Z,13.00
2022-09-15T09:41:35.635Z,12.93
2022-09-15T09:44:05.402Z,13.00
2022-09-15T09:46:34.571Z,12.97
2022-09-15T09:49:05.830Z,13.10
2022-09-15T09:51:41.494Z,12.73
2022-09-15T09:54:16.372Z,12.70
2022-09-15T09:56:45.257Z,13.30
2022-09-15T09:59:35.738Z,12.93
2022-09-15T10:02:15.761Z,12.90
2022-09-15T10:04:45.633Z,13.40
2022-09-15T10:07:17.605Z,13.40
2022-09-15T10:09:54.832Z,13.40
2022-09-15T10:12:26.890Z,13.67
2022-09-15T10:14:57.913Z,13.00
2022-09-15T10:17:29.111Z,13.00
2022-09-15T10:19:59.158Z,12.90
2022-09-15T10:22:34.347Z,12.80
2022-09-15T10:25:04.528Z,12.40
2022-09-15T10:27:34.107Z,12.23
2022-09-15T10:30:18.730Z,12.00
2022-09-15T10:32:46.921Z,11.70
2022-09-15T10:35:16.714Z,12.10
2022-09-15T10:38:01.297Z,11.50
2022-09-15T10:40:46.919Z,11.23
2022-09-15T10:43:35.027Z,11.00
2022-09-15T10:46:08.957Z,10.70
2022-09-15T10:48:47.033Z,10.60
2022-09-15T10:51:29.729Z,10.83
2022-09-15T10:54:12.228Z,10.67
2022-09-15T10:56:43.365Z,10.13
2022-09-15T10:59:44.308Z,10.50
2022-09-15T11:02:45.011Z,10.50
2022-09-15T11:05:35.346Z,9.70
2022-09-15T11:08:27.384Z,10.03
2022-09-15T11:11:05.070Z,10.30
2022-09-15T11:13:42.183Z,9.57
2022-09-15T11:16:28.328Z,10.07
2022-09-15T11:19:11.947Z,10.03
2022-09-15T11:21:44.225Z,9.60
2022-09-15T11:24:32.444Z,9.80
2022-09-15T11:27:06.525Z,9.57
2022-09-15T11:29:44.509Z,9.77
2022-09-15T11:32:17.177Z,10.20
2022-09-15T11:34:54.184Z,10.13
2022-09-15T11:37:26.411Z,9.70
2022-09-15T11:39:59.755Z,9.30
2022-09-15T11:42:40.323Z,9.90
2022-09-15T11:45:16.896Z,9.03
2022-09-15T11:47:48.788Z,8.70
2022-09-15T11:50:21.451Z,9.37
2022-09-15T11:52:56.218Z,9.20
2022-09-15T11:55:34.405Z,9.30
2022-09-15T11:58:21.858Z,9.37
2022-09-15T12:00:55.570Z,8.87
2022-09-15T12:03:28.848Z,9.37
2022-09-15T12:06:02.268Z,9.67
2022-09-15T12:08:36.129Z,9.80
2022-09-15T12:11:09.026Z,9.53
2022-09-15T12:13:39.839Z,10.10
2022-09-15T12:16:09.500Z,8.80
2022-09-15T12:18:43.858Z,8.90
2022-09-15T12:21:20.918Z,8.43
2022-09-15T12:23:55.963Z,9.00
2022-09-15T12:26:26.381Z,9.10
2022-09-15T12:29:02.427Z,9.10
2022-09-15T12:31:33.628Z,8.50
2022-09-15T12:34:04.748Z,9.20
2022-09-15T12:36:40.253Z,8.70
2022-09-15T12:39:32.605Z,9.10
2022-09-15T12:42:12.194Z,8.60
2022-09-15T12:44:46.361Z,8.50
2022-09-15T12:47:29.675Z,9.17
2022-09-15T12:50:01.596Z,9.27
2022-09-15T12:52:30.194Z,9.00
2022-09-15T12:55:01.846Z,8.77
2022-09-15T12:57:33.564Z,9.00
2022-09-15T13:00:32.452Z,9.53
2022-09-15T13:03:03.018Z,9.40
2022-09-15T13:06:17.208Z,9.50
2022-09-15T13:09:17.888Z,8.97
2022-09-15T13:11:51.083Z,8.87
2022-09-15T13:14:26.106Z,8.10
2022-09-15T13:17:00.721Z,8.10
2022-09-15T13:19:41.133Z,8.23
2022-09-15T13:22:20.074Z,9.03
2022-09-15T13:24:57.656Z,7.93
2022-09-15T13:27:38.187Z,8.50
2022-09-15T13:30:22.765Z,8.40
2022-09-15T13:33:00.755Z,9.03
2022-09-15T13:35:48.470Z,9.10
2022-09-15T13:38:42.837Z,8.70
2022-09-15T13:41:43.022Z,8.37
2022-09-15T13:44:48.911Z,8.60
2022-09-15T13:47:30.798Z,8.10
2022-09-15T13:50:16.116Z,8.20
2022-09-15T13:52:59.574Z,8.77
2022-09-15T13:55:29.801Z,8.93
2022-09-15T14:00:58.754Z,8.80
2022-09-15T14:03:36.940Z,10.30
2022-09-15T14:06:13.535Z,9.57
2022-09-15T14:08:45.417Z,9.37
2022-09-15T14:11:16.573Z,8.73
2022-09-15T14:13:48.551Z,8.63
2022-09-15T14:16:24.828Z,9.00
2022-09-15T14:18:54.889Z,9.13
2022-09-15T14:21:26.090Z,9.60
2022-09-15T14:23:56.164Z,9.00
2022-09-15T14:26:26.671Z,10.10
2022-09-15T14:28:58.570Z,11.03
2022-09-15T14:31:33.834Z,10.97
2022-09-15T14:34:02.714Z,9.93
2022-09-15T14:36:34.399Z,10.70
2022-09-15T14:39:09.806Z,9.70
2022-09-15T14:41:38.819Z,10.47
2022-09-15T14:47:15.259Z,10.03
2022-09-15T14:49:43.311Z,9.63
2022-09-15T14:52:25.133Z,10.20
2022-09-15T14:54:58.857Z,8.60
2022-09-15T14:57:31.407Z,9.00
2022-09-15T15:00:03.361Z,8.80
2022-09-15T15:02:40.840Z,9.20
2022-09-15T15:05:15.152Z,9.00
2022-09-15T15:07:46.549Z,9.23
2022-09-15T15:10:20.974Z,9.10
2022-09-15T15:12:55.644Z,8.87
2022-09-15T15:15:24.033Z,9.10
2022-09-15T15:17:54.865Z,7.83
2022-09-15T15:20:25.703Z,8.10
2022-09-15T15:23:16.506Z,7.97
2022-09-15T15:25:46.985Z,8.63
2022-09-15T15:28:33.807Z,7.60
2022-09-15T15:31:13.841Z,7.80
2022-09-15T15:33:48.367Z,7.40
2022-09-15T15:36:21.790Z,7.27
2022-09-15T15:38:54.632Z,7.27
2022-09-15T15:41:25.120Z,6.90
2022-09-15T15:43:58.650Z,6.87
2022-09-15T15:46:46.563Z,6.10
2022-09-15T15:49:14.906Z,6.10
2022-09-15T15:51:43.912Z,5.80
2022-09-15T15:54:14.782Z,5.83
2022-09-15T15:56:43.951Z,6.03
2022-09-15T15:59:14.048Z,6.07
2022-09-15T16:01:42.644Z,5.80
2022-09-15T16:04:13.919Z,6.03
2022-09-15T16:06:42.788Z,5.50
2022-09-15T16:09:11.739Z,5.90
2022-09-15T16:11:44.566Z,5.87
2022-09-15T16:14:14.241Z,5.40
2022-09-15T16:16:42.432Z,5.43
2022-09-15T16:19:11.455Z,5.80
2022-09-15T16:21:42.447Z,5.33
2022-09-15T16:24:15.711Z,5.07
2022-09-15T16:26:53.558Z,4.60
2022-09-15T16:29:26.053Z,5.43
2022-09-15T16:31:54.566Z,5.33
2022-09-15T16:34:23.035Z,5.17
2022-09-15T16:36:51.151Z,5.10
2022-09-15T16:39:19.335Z,5.20
2022-09-15T16:41:48.769Z,5.37
2022-09-15T16:44:20.317Z,5.60
2022-09-15T16:46:48.473Z,5.27
2022-09-15T16:49:16.613Z,5.03
2022-09-15T16:51:44.913Z,5.00
2022-09-15T16:54:16.581Z,5.33
2022-09-15T16:56:45.492Z,5.60
2022-09-15T16:59:15.338Z,5.53
2022-09-15T17:01:43.925Z,5.47
2022-09-15T17:04:15.759Z,5.10
2022-09-15T17:06:44.317Z,5.60
2022-09-15T17:09:12.362Z,4.80
2022-09-15T17:11:41.564Z,5.30
2022-09-15T17:14:13.280Z,6.47
2022-09-15T17:16:42.791Z,6.00
2022-09-15T17:19:10.819Z,5.53
2022-09-15T17:21:38.837Z,5.20
2022-09-15T17:24:07.123Z,5.70
2022-09-15T17:26:35.350Z,5.57
2022-09-15T17:29:03.451Z,5.20
2022-09-15T17:31:32.507Z,5.63
2022-09-15T17:34:02.648Z,5.17
2022-09-15T17:36:30.893Z,5.93
2022-09-15T17:38:58.999Z,5.50
2022-09-15T17:41:27.030Z,5.97
2022-09-15T17:43:55.283Z,5.67
2022-09-15T17:46:23.400Z,5.57
2022-09-15T17:48:52.787Z,5.33
2022-09-15T17:51:22.123Z,5.03
2022-09-15T17:53:50.157Z,6.27
2022-09-15T17:56:18.228Z,5.33
2022-09-15T17:58:46.362Z,5.80
2022-09-15T18:01:15.776Z,5.30
2022-09-15T18:03:45.707Z,5.70
2022-09-15T18:06:14.177Z,5.07
2022-09-15T18:08:43.944Z,5.60
2022-09-15T18:11:14.871Z,5.00
2022-09-15T18:13:43.118Z,5.70
2022-09-15T18:16:14.069Z,4.57
2022-09-15T18:18:43.698Z,6.23
2022-09-15T18:21:24.464Z,5.27
2022-09-15T18:23:54.812Z,5.10
2022-09-15T18:26:26.239Z,5.30
2022-09-15T18:28:55.794Z,5.13
2022-09-15T18:31:23.999Z,5.17
2022-09-15T18:33:52.152Z,5.60
2022-09-15T18:36:20.652Z,6.00
2022-09-15T18:38:48.876Z,6.00
2022-09-15T18:41:18.755Z,5.30
2022-09-15T18:43:49.152Z,5.30
2022-09-15T18:46:18.286Z,5.00
2022-09-15T18:48:46.753Z,5.83
2022-09-15T18:51:28.925Z,5.80
2022-09-15T18:54:03.209Z,6.27
2022-09-15T18:56:32.993Z,6.20
2022-09-15T18:59:01.643Z,5.23
2022-09-15T19:01:31.088Z,5.13
2022-09-15T19:03:59.265Z,5.30
2022-09-15T19:06:27.526Z,6.23
2022-09-15T19:08:56.118Z,6.03
2022-09-15T19:11:24.275Z,5.57
2022-09-15T19:13:55.194Z,6.60
2022-09-15T19:16:34.520Z,6.50
2022-09-15T19:19:13.799Z,5.67
2022-09-15T19:21:42.594Z,5.87
2022-09-15T19:24:10.847Z,5.50
2022-09-15T19:26:39.191Z,5.70
2022-09-15T19:29:09.453Z,6.17
2022-09-15T19:31:41.848Z,5.60
2022-09-15T19:34:10.837Z,5.87
2022-09-15T19:36:39.343Z,5.90
2022-09-15T19:39:07.772Z,5.90
2022-09-15T19:41:35.934Z,5.70
2022-09-15T19:44:04.617Z,5.73
2022-09-15T19:46:34.331Z,6.00
2022-09-15T19:49:03.537Z,5.80
2022-09-15T19:51:32.336Z,7.00
2022-09-15T19:54:01.041Z,6.30
2022-09-15T19:56:30.118Z,5.40
2022-09-15T19:59:00.260Z,5.73
2022-09-15T20:01:30.540Z,5.53
2022-09-15T20:04:02.004Z,6.00
2022-09-15T20:06:32.689Z,5.30
2022-09-15T20:09:01.324Z,5.90
2022-09-15T20:11:30.783Z,5.47
2022-09-15T20:13:59.434Z,5.57
2022-09-15T20:16:28.155Z,5.50
2022-09-15T20:18:57.145Z,5.83
2022-09-15T20:21:48.646Z,5.60
2022-09-15T20:24:17.472Z,5.60
2022-09-15T20:26:45.747Z,5.80
2022-09-15T20:29:14.461Z,5.57
2022-09-15T20:31:42.711Z,5.70
2022-09-15T20:34:11.484Z,5.83
2022-09-15T20:36:41.449Z,5.83
2022-09-15T20:39:13.245Z,5.47
2022-09-15T20:41:44.923Z,5.87
2022-09-15T20:44:14.024Z,6.37
2022-09-15T20:46:42.322Z,6.07
2022-09-15T20:49:13.941Z,5.90
2022-09-15T20:51:43.563Z,10.00
2022-09-15T20:54:12.007Z,10.27
2022-09-15T20:56:40.093Z,9.43
2022-09-15T20:59:10.610Z,6.60
2022-09-15T21:01:40.166Z,11.23
2022-09-15T21:04:09.597Z,9.67
2022-09-15T21:06:38.505Z,6.63
2022-09-15T21:09:08.747Z,6.80
2022-09-15T21:11:36.950Z,6.90
2022-09-15T21:14:05.221Z,6.90
2022-09-15T21:16:33.871Z,6.63
2022-09-15T21:19:02.116Z,6.50
2022-09-15T21:21:31.974Z,6.60
2022-09-15T21:24:04.032Z,5.83
2022-09-15T21:26:35.427Z,6.37
2022-09-15T21:29:04.329Z,6.13
2022-09-15T21:31:34.103Z,6.60
2022-09-15T21:34:02.491Z,6.00
2022-09-15T21:36:32.146Z,5.63
2022-09-15T21:39:02.685Z,6.93
2022-09-15T21:41:31.063Z,7.03
2022-09-15T21:44:01.065Z,6.00
2022-09-15T21:46:31.956Z,6.27
2022-09-15T21:49:01.612Z,6.20
2022-09-15T21:51:30.842Z,5.80
2022-09-15T21:54:00.598Z,6.00
2022-09-15T21:56:30.177Z,6.13
2022-09-15T21:58:58.481Z,6.10
2022-09-15T22:01:29.785Z,6.90
2022-09-15T22:03:59.644Z,5.90
2022-09-15T22:06:31.678Z,6.20
2022-09-15T22:09:00.524Z,6.10
2022-09-15T22:11:28.877Z,6.40
2022-09-15T22:13:57.155Z,6.43
2022-09-15T22:16:27.548Z,6.27
2022-09-15T22:18:56.523Z,6.77
2022-09-15T22:21:27.686Z,6.90
2022-09-15T22:23:57.219Z,6.00
2022-09-15T22:26:27.295Z,6.50
2022-09-15T22:28:55.903Z,7.30
2022-09-15T22:31:25.364Z,6.73
2022-09-15T22:33:55.642Z,6.10
2022-09-15T22:36:29.321Z,6.57
2022-09-15T22:39:04.103Z,6.20
2022-09-15T22:41:33.326Z,6.90
2022-09-15T22:44:01.518Z,6.40
2022-09-15T22:46:29.686Z,6.30
2022-09-15T22:49:00.044Z,6.70
2022-09-15T22:51:28.292Z,6.43
2022-09-15T22:53:57.507Z,7.50
2022-09-15T22:56:27.540Z,6.20
2022-09-15T22:58:56.477Z,7.07
2022-09-15T23:01:27.796Z,7.47
2022-09-15T23:03:58.790Z,6.63
2022-09-15T23:06:28.375Z,6.70
2022-09-15T23:08:58.003Z,7.20
2022-09-15T23:11:27.054Z,6.83
2022-09-15T23:13:55.788Z,7.17
2022-09-15T23:16:25.098Z,6.87
2022-09-15T23:18:53.802Z,7.30
2022-09-15T23:21:23.652Z,7.00
2022-09-15T23:23:54.040Z,6.83
2022-09-15T23:26:23.866Z,6.53
2022-09-15T23:28:52.472Z,6.73
2022-09-15T23:31:21.463Z,6.23
2022-09-15T23:33:49.834Z,7.03
2022-09-15T23:36:20.276Z,6.97
2022-09-15T23:38:50.709Z,7.00
2022-09-15T23:41:19.463Z,7.30
2022-09-15T23:43:48.718Z,7.33
2022-09-15T23:46:17.034Z,7.37
2022-09-15T23:48:45.814Z,7.00
2022-09-15T23:51:14.049Z,6.37
2022-09-15T23:53:42.246Z,7.77
2022-09-15T23:56:11.821Z,7.30
2022-09-15T23:58:40.137Z,7.20
